FDX5383 KFAT-KABQ
Flight info
| Callsign | FDX5383 |
|---|---|
| Flight time | N/A |
| Altitude | 41000 |
| Route | BULL3 NTELL FRAME EHF PMD J6 DRK SJN TMALE BRRTO BRRTO1 |
| Aircraft | A333/H-SDE3GHIJ2J3J5M1RVWXY/LB2D1 |
Departure
| Time | 2026-04-25 22:18 |
|---|---|
| Airport | Fresno Yosemite International Airport (KFAT) |
Arrival
| Time | N/A |
|---|---|
| Airport | Albuquerque International Sunport (KABQ) |
| Time | Latitude | Longitude | Altitude | Speed | Heading |
|---|---|---|---|---|---|
| 2026-04-25 22:03 | 36.77402 | -119.70621 | 351 ft | 0 kts | 83° |
| 2026-04-25 22:12 | 36.77401 | -119.70628 | 350 ft | 1 kts | 86° |
| 2026-04-25 22:12 | 36.77403 | -119.70649 | 350 ft | 3 kts | 128° |
| 2026-04-25 22:12 | 36.77413 | -119.70659 | 336 ft | 3 kts | 178° |
| 2026-04-25 22:13 | 36.77423 | -119.70656 | 335 ft | 0 kts | 215° |
| 2026-04-25 22:13 | 36.77413 | -119.70664 | 335 ft | 3 kts | 215° |
| 2026-04-25 22:13 | 36.77380 | -119.70693 | 336 ft | 7 kts | 214° |
| 2026-04-25 22:13 | 36.77335 | -119.70717 | 349 ft | 6 kts | 178° |
| 2026-04-25 22:14 | 36.77303 | -119.70697 | 354 ft | 5 kts | 142° |
| 2026-04-25 22:14 | 36.77262 | -119.70639 | 350 ft | 13 kts | 123° |
| 2026-04-25 22:14 | 36.77189 | -119.70512 | 355 ft | 23 kts | 126° |
| 2026-04-25 22:14 | 36.77108 | -119.70368 | 356 ft | 13 kts | 124° |
| 2026-04-25 22:15 | 36.77035 | -119.70289 | 353 ft | 15 kts | 156° |
| 2026-04-25 22:15 | 36.76968 | -119.70300 | 355 ft | 0 kts | 214° |
| 2026-04-25 22:16 | 36.76940 | -119.70328 | 355 ft | 10 kts | 226° |
| 2026-04-25 22:17 | 36.76927 | -119.70412 | 350 ft | 11 kts | 284° |
| 2026-04-25 22:17 | 36.76962 | -119.70491 | 350 ft | 14 kts | 303° |
| 2026-04-25 22:17 | 36.77176 | -119.70867 | 336 ft | 96 kts | 306° |
| 2026-04-25 22:17 | 36.77716 | -119.71811 | 337 ft | 169 kts | 305° |
| 2026-04-25 22:18 | 36.78479 | -119.73154 | 784 ft | 204 kts | 305° |
| 2026-04-25 22:18 | 36.79401 | -119.74668 | 1526 ft | 232 kts | 312° |
| 2026-04-25 22:18 | 36.80711 | -119.75934 | 2614 ft | 245 kts | 331° |
| 2026-04-25 22:18 | 36.82214 | -119.76891 | 3989 ft | 238 kts | 321° |
| 2026-04-25 22:19 | 36.83080 | -119.78554 | 5471 ft | 225 kts | 287° |
| 2026-04-25 22:19 | 36.83454 | -119.80379 | 6839 ft | 215 kts | 284° |
| 2026-04-25 22:19 | 36.83893 | -119.82121 | 8170 ft | 205 kts | 290° |
| 2026-04-25 22:19 | 36.84438 | -119.83714 | 9400 ft | 196 kts | 295° |
| 2026-04-25 22:20 | 36.85062 | -119.85215 | 10370 ft | 194 kts | 299° |
| 2026-04-25 22:20 | 36.85747 | -119.86672 | 11218 ft | 196 kts | 301° |
| 2026-04-25 22:20 | 36.86479 | -119.88121 | 12005 ft | 198 kts | 302° |
| 2026-04-25 22:20 | 36.87239 | -119.89570 | 12763 ft | 201 kts | 303° |
| 2026-04-25 22:21 | 36.88021 | -119.91031 | 13515 ft | 203 kts | 303° |
| 2026-04-25 22:21 | 36.88818 | -119.92506 | 14239 ft | 206 kts | 304° |
| 2026-04-25 22:21 | 36.89410 | -119.93597 | 14755 ft | 208 kts | 304° |